sensor_id;sensor_type;location;lat;lon;timestamp;P1;durP1;ratioP1;P2;durP2;ratioP2
40527;SDS011;26230;51.268;6.534;2024-01-16T00:00:00;24.5;;;22.6;;
40527;SDS011;26230;51.268;6.534;2024-01-16T00:10:00;24.5;;;22.6;;
40527;SDS011;26230;51.268;6.534;2024-01-16T00:20:01;27.5;;;25.1;;
40527;SDS011;26230;51.268;6.534;2024-01-16T00:30:02;28.0;;;25.7;;
40527;SDS011;26230;51.268;6.534;2024-01-16T00:40:00;28.0;;;25.7;;
40527;SDS011;26230;51.268;6.534;2024-01-16T00:50:02;29.6;;;26.8;;
40527;SDS011;26230;51.268;6.534;2024-01-16T01:00:01;32.6;;;29.9;;
40527;SDS011;26230;51.268;6.534;2024-01-16T01:10:00;32.6;;;29.9;;
40527;SDS011;26230;51.268;6.534;2024-01-16T01:20:00;35.1;;;31.7;;
40527;SDS011;26230;51.268;6.534;2024-01-16T01:30:01;33.1;;;30.0;;
40527;SDS011;26230;51.268;6.534;2024-01-16T01:40:00;33.1;;;30.0;;
40527;SDS011;26230;51.268;6.534;2024-01-16T01:50:03;31.6;;;28.7;;
40527;SDS011;26230;51.268;6.534;2024-01-16T02:00:01;30.5;;;27.9;;
40527;SDS011;26230;51.268;6.534;2024-01-16T02:10:00;30.5;;;27.9;;
40527;SDS011;26230;51.268;6.534;2024-01-16T02:20:00;33.4;;;30.5;;
40527;SDS011;26230;51.268;6.534;2024-01-16T02:30:01;34.9;;;31.4;;
40527;SDS011;26230;51.268;6.534;2024-01-16T02:40:03;34.9;;;31.4;;
40527;SDS011;26230;51.268;6.534;2024-01-16T02:50:00;35.3;;;31.8;;
40527;SDS011;26230;51.268;6.534;2024-01-16T03:00:00;34.7;;;30.9;;
40527;SDS011;26230;51.268;6.534;2024-01-16T03:10:00;34.7;;;30.9;;
40527;SDS011;26230;51.268;6.534;2024-01-16T03:20:00;34.4;;;30.7;;
40527;SDS011;26230;51.268;6.534;2024-01-16T03:30:02;32.2;;;29.3;;
40527;SDS011;26230;51.268;6.534;2024-01-16T03:40:03;32.2;;;29.3;;
40527;SDS011;26230;51.268;6.534;2024-01-16T03:50:00;28.9;;;26.3;;
40527;SDS011;26230;51.268;6.534;2024-01-16T04:00:01;26.6;;;24.3;;
40527;SDS011;26230;51.268;6.534;2024-01-16T04:10:01;26.6;;;24.3;;
40527;SDS011;26230;51.268;6.534;2024-01-16T04:20:00;26.5;;;24.4;;
40527;SDS011;26230;51.268;6.534;2024-01-16T04:30:00;32.4;;;29.6;;
40527;SDS011;26230;51.268;6.534;2024-01-16T04:40:01;32.4;;;29.6;;
40527;SDS011;26230;51.268;6.534;2024-01-16T04:50:00;35.0;;;31.7;;
40527;SDS011;26230;51.268;6.534;2024-01-16T05:00:06;34.3;;;30.9;;
40527;SDS011;26230;51.268;6.534;2024-01-16T05:10:01;34.3;;;30.9;;
40527;SDS011;26230;51.268;6.534;2024-01-16T05:20:03;33.9;;;30.2;;
40527;SDS011;26230;51.268;6.534;2024-01-16T05:30:01;31.5;;;28.4;;
40527;SDS011;26230;51.268;6.534;2024-01-16T05:40:02;31.5;;;28.4;;
40527;SDS011;26230;51.268;6.534;2024-01-16T05:50:01;29.5;;;26.6;;
40527;SDS011;26230;51.268;6.534;2024-01-16T06:00:04;30.3;;;26.7;;
40527;SDS011;26230;51.268;6.534;2024-01-16T06:10:05;30.3;;;26.7;;
40527;SDS011;26230;51.268;6.534;2024-01-16T06:20:00;31.8;;;25.8;;
40527;SDS011;26230;51.268;6.534;2024-01-16T06:30:00;27.9;;;25.0;;
40527;SDS011;26230;51.268;6.534;2024-01-16T06:40:00;27.9;;;25.0;;
40527;SDS011;26230;51.268;6.534;2024-01-16T06:50:00;30.8;;;23.9;;
40527;SDS011;26230;51.268;6.534;2024-01-16T07:00:03;26.0;;;23.4;;
40527;SDS011;26230;51.268;6.534;2024-01-16T07:10:02;26.0;;;23.4;;
40527;SDS011;26230;51.268;6.534;2024-01-16T07:20:00;24.8;;;22.4;;
40527;SDS011;26230;51.268;6.534;2024-01-16T07:30:01;25.1;;;22.8;;
40527;SDS011;26230;51.268;6.534;2024-01-16T07:40:00;25.1;;;22.8;;
40527;SDS011;26230;51.268;6.534;2024-01-16T07:50:01;25.1;;;22.4;;
40527;SDS011;26230;51.268;6.534;2024-01-16T08:00:00;25.0;;;22.4;;
40527;SDS011;26230;51.268;6.534;2024-01-16T08:10:01;25.0;;;22.4;;
40527;SDS011;26230;51.268;6.534;2024-01-16T08:20:00;25.9;;;22.8;;
40527;SDS011;26230;51.268;6.534;2024-01-16T08:30:02;25.6;;;22.9;;
40527;SDS011;26230;51.268;6.534;2024-01-16T08:40:01;25.6;;;22.9;;
40527;SDS011;26230;51.268;6.534;2024-01-16T08:50:02;23.2;;;21.1;;
40527;SDS011;26230;51.268;6.534;2024-01-16T09:00:00;24.9;;;22.2;;
40527;SDS011;26230;51.268;6.534;2024-01-16T09:10:03;24.9;;;22.2;;
40527;SDS011;26230;51.268;6.534;2024-01-16T09:20:02;24.0;;;21.4;;
40527;SDS011;26230;51.268;6.534;2024-01-16T09:30:00;24.2;;;21.8;;
40527;SDS011;26230;51.268;6.534;2024-01-16T09:40:00;24.2;;;21.8;;
40527;SDS011;26230;51.268;6.534;2024-01-16T09:50:02;23.9;;;21.7;;
40527;SDS011;26230;51.268;6.534;2024-01-16T10:00:05;24.5;;;22.2;;
40527;SDS011;26230;51.268;6.534;2024-01-16T10:10:00;24.5;;;22.2;;
40527;SDS011;26230;51.268;6.534;2024-01-16T10:20:04;24.6;;;22.2;;
40527;SDS011;26230;51.268;6.534;2024-01-16T10:30:01;26.5;;;21.4;;
40527;SDS011;26230;51.268;6.534;2024-01-16T10:40:00;26.5;;;21.4;;
40527;SDS011;26230;51.268;6.534;2024-01-16T10:50:01;26.0;;;22.9;;
40527;SDS011;26230;51.268;6.534;2024-01-16T11:00:06;24.8;;;22.1;;
40527;SDS011;26230;51.268;6.534;2024-01-16T11:10:01;24.8;;;22.1;;
40527;SDS011;26230;51.268;6.534;2024-01-16T11:20:12;24.3;;;21.9;;
40527;SDS011;26230;51.268;6.534;2024-01-16T11:30:01;25.7;;;22.3;;
40527;SDS011;26230;51.268;6.534;2024-01-16T11:40:32;25.7;;;22.3;;
40527;SDS011;26230;51.268;6.534;2024-01-16T11:50:09;24.4;;;22.2;;
40527;SDS011;26230;51.268;6.534;2024-01-16T12:00:20;24.4;;;22.1;;
40527;SDS011;26230;51.268;6.534;2024-01-16T12:10:01;24.4;;;22.1;;
40527;SDS011;26230;51.268;6.534;2024-01-16T12:20:01;24.1;;;22.0;;
40527;SDS011;26230;51.268;6.534;2024-01-16T12:30:10;25.9;;;23.3;;
40527;SDS011;26230;51.268;6.534;2024-01-16T12:40:01;25.9;;;23.3;;
40527;SDS011;26230;51.268;6.534;2024-01-16T12:50:02;24.0;;;22.1;;
40527;SDS011;26230;51.268;6.534;2024-01-16T13:00:04;25.2;;;22.8;;
40527;SDS011;26230;51.268;6.534;2024-01-16T13:10:12;25.2;;;22.8;;
40527;SDS011;26230;51.268;6.534;2024-01-16T13:20:03;24.7;;;22.4;;
40527;SDS011;26230;51.268;6.534;2024-01-16T13:30:01;23.2;;;21.3;;
40527;SDS011;26230;51.268;6.534;2024-01-16T13:40:03;23.2;;;21.3;;
40527;SDS011;26230;51.268;6.534;2024-01-16T13:50:03;23.9;;;21.6;;
40527;SDS011;26230;51.268;6.534;2024-01-16T14:00:02;22.6;;;20.8;;
40527;SDS011;26230;51.268;6.534;2024-01-16T14:10:01;22.6;;;20.8;;
40527;SDS011;26230;51.268;6.534;2024-01-16T14:20:00;23.5;;;21.3;;
40527;SDS011;26230;51.268;6.534;2024-01-16T14:30:02;22.7;;;20.7;;
40527;SDS011;26230;51.268;6.534;2024-01-16T14:40:01;22.7;;;20.7;;
40527;SDS011;26230;51.268;6.534;2024-01-16T14:50:00;23.2;;;20.7;;
40527;SDS011;26230;51.268;6.534;2024-01-16T15:00:00;23.1;;;21.0;;
40527;SDS011;26230;51.268;6.534;2024-01-16T15:10:06;23.1;;;21.0;;
40527;SDS011;26230;51.268;6.534;2024-01-16T15:20:00;22.7;;;20.9;;
40527;SDS011;26230;51.268;6.534;2024-01-16T15:30:01;23.4;;;20.6;;
40527;SDS011;26230;51.268;6.534;2024-01-16T15:40:00;23.4;;;20.6;;
40527;SDS011;26230;51.268;6.534;2024-01-16T15:50:00;23.1;;;20.9;;
40527;SDS011;26230;51.268;6.534;2024-01-16T16:00:05;22.8;;;20.4;;
40527;SDS011;26230;51.268;6.534;2024-01-16T16:10:00;22.8;;;20.4;;
40527;SDS011;26230;51.268;6.534;2024-01-16T16:20:01;21.7;;;19.8;;
40527;SDS011;26230;51.268;6.534;2024-01-16T16:30:01;23.0;;;20.8;;
40527;SDS011;26230;51.268;6.534;2024-01-16T16:40:05;23.0;;;20.8;;
40527;SDS011;26230;51.268;6.534;2024-01-16T16:50:04;23.5;;;21.2;;
40527;SDS011;26230;51.268;6.534;2024-01-16T17:00:01;22.9;;;20.9;;
40527;SDS011;26230;51.268;6.534;2024-01-16T17:10:00;22.9;;;20.9;;
40527;SDS011;26230;51.268;6.534;2024-01-16T17:20:03;24.8;;;22.2;;
40527;SDS011;26230;51.268;6.534;2024-01-16T17:30:01;23.1;;;20.9;;
40527;SDS011;26230;51.268;6.534;2024-01-16T17:40:01;23.1;;;20.9;;
40527;SDS011;26230;51.268;6.534;2024-01-16T17:50:00;24.0;;;21.7;;
40527;SDS011;26230;51.268;6.534;2024-01-16T18:00:04;24.0;;;21.7;;
40527;SDS011;26230;51.268;6.534;2024-01-16T18:10:02;24.0;;;21.7;;
40527;SDS011;26230;51.268;6.534;2024-01-16T18:20:00;23.6;;;21.6;;
40527;SDS011;26230;51.268;6.534;2024-01-16T18:30:04;26.2;;;23.5;;
40527;SDS011;26230;51.268;6.534;2024-01-16T18:40:00;26.2;;;23.5;;
40527;SDS011;26230;51.268;6.534;2024-01-16T18:50:00;25.4;;;22.8;;
40527;SDS011;26230;51.268;6.534;2024-01-16T19:00:00;30.3;;;22.9;;
40527;SDS011;26230;51.268;6.534;2024-01-16T19:10:01;30.3;;;22.9;;
40527;SDS011;26230;51.268;6.534;2024-01-16T19:20:09;25.8;;;23.1;;
40527;SDS011;26230;51.268;6.534;2024-01-16T19:30:04;31.4;;;23.2;;
40527;SDS011;26230;51.268;6.534;2024-01-16T19:40:03;31.4;;;23.2;;
40527;SDS011;26230;51.268;6.534;2024-01-16T19:50:05;25.7;;;23.1;;
40527;SDS011;26230;51.268;6.534;2024-01-16T20:00:01;26.0;;;22.3;;
40527;SDS011;26230;51.268;6.534;2024-01-16T20:10:01;26.0;;;22.3;;
40527;SDS011;26230;51.268;6.534;2024-01-16T20:20:00;26.5;;;23.7;;
40527;SDS011;26230;51.268;6.534;2024-01-16T20:30:05;24.7;;;22.1;;
40527;SDS011;26230;51.268;6.534;2024-01-16T20:40:00;24.7;;;22.1;;
40527;SDS011;26230;51.268;6.534;2024-01-16T20:50:01;27.6;;;21.3;;
40527;SDS011;26230;51.268;6.534;2024-01-16T21:00:04;27.1;;;22.3;;
40527;SDS011;26230;51.268;6.534;2024-01-16T21:10:00;27.1;;;22.3;;
40527;SDS011;26230;51.268;6.534;2024-01-16T21:20:06;24.4;;;22.1;;
40527;SDS011;26230;51.268;6.534;2024-01-16T21:30:01;25.7;;;22.9;;
40527;SDS011;26230;51.268;6.534;2024-01-16T21:40:01;25.7;;;22.9;;
40527;SDS011;26230;51.268;6.534;2024-01-16T21:50:07;25.7;;;22.0;;
40527;SDS011;26230;51.268;6.534;2024-01-16T22:00:04;23.2;;;20.8;;
40527;SDS011;26230;51.268;6.534;2024-01-16T22:10:00;23.2;;;20.8;;
40527;SDS011;26230;51.268;6.534;2024-01-16T22:20:01;26.3;;;22.8;;
40527;SDS011;26230;51.268;6.534;2024-01-16T22:30:01;25.0;;;22.5;;
40527;SDS011;26230;51.268;6.534;2024-01-16T22:40:00;25.0;;;22.5;;
40527;SDS011;26230;51.268;6.534;2024-01-16T22:50:03;27.3;;;23.6;;
40527;SDS011;26230;51.268;6.534;2024-01-16T23:00:01;25.5;;;22.9;;
40527;SDS011;26230;51.268;6.534;2024-01-16T23:10:02;25.5;;;23.1;;
40527;SDS011;26230;51.268;6.534;2024-01-16T23:20:01;25.5;;;23.1;;
40527;SDS011;26230;51.268;6.534;2024-01-16T23:30:01;28.2;;;24.6;;
40527;SDS011;26230;51.268;6.534;2024-01-16T23:40:04;25.4;;;23.0;;
40527;SDS011;26230;51.268;6.534;2024-01-16T23:50:00;25.4;;;23.0;;
